Time;durP1;ratioP1;P1;durP2;ratioP2;P2;SDS_P1;SDS_P2;PMS_P1;PMS_P2;Temp;Humidity;BMP_temperature;BMP_pressure;BME280_temperature;BME280_humidity;BME280_pressure;Samples;Min_cycle;Max_cycle;Signal;HPM_P1;HPM_P2
2021/06/30 00:00:13;;;;;;;21.58;8.88;;;;;;;15.37;94.79;101031.28;5075466;28;20107;-68
2021/06/30 00:02:38;;;;;;;20.88;9.02;;;;;;;15.30;94.96;101029.59;5075405;28;20033;-67
2021/06/30 00:05:07;;;;;;;21.83;9.90;;;;;;;15.35;96.03;101033.09;5075055;28;20029;-66
2021/06/30 00:07:33;;;;;;;23.13;10.43;;;;;;;15.37;100.00;101035.75;5075160;28;20028;-66
2021/06/30 00:09:59;;;;;;;23.27;10.60;;;;;;;15.24;98.12;101030.56;5075234;28;20028;-69
2021/06/30 00:12:25;;;;;;;22.20;10.18;;;;;;;15.33;94.67;101022.47;5075003;28;20021;-67
2021/06/30 00:14:51;;;;;;;22.33;10.55;;;;;;;15.36;94.45;101031.31;5075276;28;20036;-66
2021/06/30 00:17:17;;;;;;;22.63;11.00;;;;;;;15.38;94.44;101032.16;5075323;28;20115;-67
2021/06/30 00:19:43;;;;;;;26.98;12.13;;;;;;;15.31;95.89;101026.03;5074749;28;20442;-66
2021/06/30 00:22:08;;;;;;;25.25;12.35;;;;;;;15.12;95.93;101025.38;5075146;28;20028;-66
2021/06/30 00:24:33;;;;;;;24.55;13.05;;;;;;;15.22;96.38;101034.13;5074785;28;20032;-66
2021/06/30 00:26:59;;;;;;;26.70;13.63;;;;;;;15.20;96.77;101028.81;5074126;28;20183;-62
2021/06/30 00:29:24;;;;;;;25.77;13.63;;;;;;;15.19;95.05;101027.06;5074736;28;20024;-64
2021/06/30 00:31:50;;;;;;;27.27;14.00;;;;;;;15.16;94.84;101022.66;5074810;28;20028;-62
2021/06/30 00:34:15;;;;;;;25.25;13.40;;;;;;;15.20;93.89;101028.81;5074603;28;20464;-62
2021/06/30 00:36:44;;;;;;;26.10;13.85;;;;;;;15.16;97.53;101022.66;5074665;28;20025;-63
2021/06/30 00:39:10;;;;;;;24.75;13.43;;;;;;;15.12;95.08;101025.38;5074543;28;20109;-63
2021/06/30 00:41:36;;;;;;;25.83;13.20;;;;;;;15.07;96.20;101017.47;5074695;28;20020;-64
2021/06/30 00:44:01;;;;;;;25.83;13.20;;;;;;;15.05;97.30;101024.56;5074564;28;20479;-62
2021/06/30 00:46:29;;;;;;;25.58;12.65;;;;;;;15.10;94.85;101020.09;5074417;28;20487;-63
2021/06/30 00:48:54;;;;;;;25.27;12.85;;;;;;;15.02;98.60;101015.75;5070068;28;20390;-63
2021/06/30 00:51:20;;;;;;;24.30;12.88;;;;;;;15.04;96.84;101012.13;5074793;28;20028;-63
2021/06/30 00:53:45;;;;;;;24.85;12.82;;;;;;;15.10;98.01;101016.50;5074291;28;20032;-64
2021/06/30 00:56:13;;;;;;;25.42;13.13;;;;;;;15.10;98.77;101016.50;5073950;28;20434;-63
2021/06/30 00:58:40;;;;;;;25.58;13.65;;;;;;;15.09;98.05;101012.97;5074174;28;20052;-62
2021/06/30 01:01:06;;;;;;;24.42;12.55;;;;;;;15.11;100.00;101015.63;5074129;28;20100;-63
2021/06/30 01:03:31;;;;;;;24.70;12.80;;;;;;;15.04;98.16;101013.94;5074164;28;20029;-64
2021/06/30 01:05:56;;;;;;;25.02;12.25;;;;;;;15.06;96.89;101009.50;5074091;28;20029;-62
2021/06/30 01:08:22;;;;;;;24.80;12.95;;;;;;;15.05;99.18;101010.38;5073950;28;20108;-63
2021/06/30 01:10:47;;;;;;;23.10;11.65;;;;;;;15.03;97.17;101012.16;5074200;28;20027;-63
2021/06/30 01:13:12;;;;;;;23.35;12.52;;;;;;;15.08;99.39;101010.34;5074283;28;20085;-63
2021/06/30 01:15:55;;;;;;;23.85;12.30;;;;;;;14.96;98.46;101008.72;5073696;28;20024;-63
2021/06/30 01:18:25;;;;;;;24.60;11.88;;;;;;;14.91;100.00;101016.75;5070318;28;20039;-63
2021/06/30 01:20:52;;;;;;;22.42;11.23;;;;;;;14.91;99.99;101016.75;5070579;28;20036;-62
2021/06/30 01:23:18;;;;;;;22.10;11.05;;;;;;;14.91;100.00;101015.84;5070249;28;20386;-63
2021/06/30 01:25:44;;;;;;;22.65;10.88;;;;;;;14.79;100.00;101022.19;5073480;28;20479;-63
2021/06/30 01:28:10;;;;;;;21.75;10.00;;;;;;;14.84;100.00;101017.72;5073735;28;20059;-64
2021/06/30 01:30:35;;;;;;;21.25;9.43;;;;;;;14.80;100.00;101018.63;5073880;28;20086;-63
2021/06/30 01:33:00;;;;;;;20.60;8.82;;;;;;;14.83;100.00;101023.91;5073467;28;20041;-63
2021/06/30 01:35:27;;;;;;;21.50;9.18;;;;;;;14.80;100.00;101018.63;5072254;28;20032;-63
2021/06/30 01:37:54;;;;;;;20.83;8.73;;;;;;;14.84;100.00;101019.47;5073334;28;20383;-64
2021/06/30 01:40:20;;;;;;;20.42;8.38;;;;;;;14.86;100.00;101013.25;5073310;28;20031;-63
2021/06/30 01:42:47;;;;;;;19.73;8.45;;;;;;;14.79;99.86;101003.56;5073891;28;20025;-64
2021/06/30 01:45:13;;;;;;;20.75;8.98;;;;;;;14.78;99.47;100989.38;5073179;28;20036;-63
2021/06/30 01:47:39;;;;;;;21.10;9.30;;;;;;;14.87;100.00;100992.81;5073102;28;20016;-64
2021/06/30 01:50:06;;;;;;;21.17;9.50;;;;;;;14.77;100.00;101010.69;5073533;28;20071;-64
2021/06/30 01:52:32;;;;;;;21.20;9.73;;;;;;;14.66;100.00;101002.78;5073115;28;20028;-63
2021/06/30 01:54:57;;;;;;;22.27;9.65;;;;;;;14.60;100.00;100989.53;5071442;28;20037;-67
2021/06/30 01:57:23;;;;;;;21.33;9.93;;;;;;;14.57;100.00;100994.88;5073364;28;20028;-67
2021/06/30 01:59:49;;;;;;;21.38;10.63;;;;;;;14.53;100.00;100994.00;5072992;28;20528;-67
2021/06/30 02:02:14;;;;;;;22.08;9.93;;;;;;;14.37;100.00;100988.00;5072880;28;20034;-66
2021/06/30 02:04:41;;;;;;;21.73;9.98;;;;;;;14.38;100.00;100994.19;5072957;28;20028;-66
2021/06/30 02:07:06;;;;;;;22.70;9.65;;;;;;;14.30;100.00;100992.47;5072936;28;20020;-68
2021/06/30 02:09:32;;;;;;;21.77;10.07;;;;;;;14.28;100.00;100988.03;5072813;28;20020;-68
2021/06/30 02:11:58;;;;;;;21.95;10.73;;;;;;;14.20;100.00;100981.91;5073303;28;20028;-66
2021/06/30 02:14:23;;;;;;;20.73;9.30;;;;;;;14.26;100.00;100982.75;5073049;28;20118;-66
2021/06/30 02:16:48;;;;;;;19.75;8.27;;;;;;;14.20;100.00;100988.13;5072715;28;20024;-66
2021/06/30 02:19:14;;;;;;;20.55;7.25;;;;;;;14.19;100.00;100985.47;5072761;28;20028;-66
2021/06/30 02:21:39;;;;;;;19.40;7.43;;;;;;;14.17;100.00;100981.94;5071348;28;20040;-68
2021/06/30 02:24:05;;;;;;;19.52;7.65;;;;;;;14.15;100.00;100979.28;5073174;28;20569;-68
2021/06/30 02:26:33;;;;;;;20.65;7.72;;;;;;;14.18;100.00;100976.59;5072809;28;20028;-65
2021/06/30 02:28:59;;;;;;;19.73;7.47;;;;;;;14.10;100.00;100978.47;5072622;28;20028;-66
2021/06/30 02:31:24;;;;;;;20.85;8.02;;;;;;;14.18;100.00;100981.91;5072894;28;20037;-65
2021/06/30 02:33:51;;;;;;;21.40;9.63;;;;;;;14.26;100.00;100980.09;5072541;28;20024;-66
2021/06/30 02:36:17;;;;;;;22.52;10.68;;;;;;;14.26;100.00;100980.09;5072736;28;20112;-68
2021/06/30 02:38:42;;;;;;;23.58;11.48;;;;;;;14.18;100.00;100971.28;5072547;28;20454;-66
2021/06/30 02:41:07;;;;;;;21.40;10.43;;;;;;;14.22;100.00;100974.81;5072491;28;20028;-67
2021/06/30 02:43:33;;;;;;;21.35;9.20;;;;;;;14.20;100.00;100968.59;5072443;28;20108;-68
2021/06/30 02:45:59;;;;;;;21.70;9.98;;;;;;;14.02;100.00;100972.31;5072838;28;20024;-69
2021/06/30 02:48:25;;;;;;;20.90;8.60;;;;;;;14.07;100.00;100973.19;5072315;28;20054;-69
2021/06/30 02:50:54;;;;;;;21.25;9.30;;;;;;;14.02;100.00;100977.63;5072087;28;20017;-68
2021/06/30 02:53:19;;;;;;;20.63;8.90;;;;;;;14.01;100.00;100974.09;5072397;28;20078;-65
2021/06/30 02:55:45;;;;;;;21.38;9.75;;;;;;;14.04;100.00;100973.19;5072102;28;20484;-69
2021/06/30 02:58:10;;;;;;;21.17;9.57;;;;;;;14.06;100.00;100976.72;5072440;28;20047;-67
2021/06/30 03:00:35;;;;;;;21.65;9.27;;;;;;;14.05;100.00;100973.19;5072448;28;20029;-67
2021/06/30 03:03:01;;;;;;;20.65;9.52;;;;;;;14.05;100.00;100980.25;5072428;28;20024;-67
2021/06/30 03:05:26;;;;;;;21.77;9.90;;;;;;;14.04;100.00;100971.41;5072370;28;20021;-67
2021/06/30 03:07:51;;;;;;;21.35;10.25;;;;;;;13.84;100.00;100976.88;5072594;28;20499;-65
2021/06/30 03:10:19;;;;;;;22.05;10.90;;;;;;;13.80;100.00;100980.44;5072103;28;20032;-66
2021/06/30 03:12:45;;;;;;;22.30;10.95;;;;;;;13.77;100.00;100980.47;5072048;28;20033;-66
2021/06/30 03:15:11;;;;;;;22.70;11.48;;;;;;;13.76;100.00;100984.91;5072302;28;20104;-69
2021/06/30 03:17:37;;;;;;;22.48;11.50;;;;;;;13.72;100.00;100980.50;5072174;28;20060;-66
2021/06/30 03:20:06;;;;;;;24.08;12.00;;;;;;;13.61;100.00;100974.38;5072036;28;20453;-64
2021/06/30 03:22:31;;;;;;;23.23;12.07;;;;;;;13.52;100.00;100982.41;5072141;28;20025;-69
2021/06/30 03:24:57;;;;;;;23.23;11.57;;;;;;;13.50;100.00;100982.41;5072051;28;20078;-64
2021/06/30 03:27:23;;;;;;;23.75;12.02;;;;;;;13.53;100.00;100982.38;5072014;28;20039;-65
2021/06/30 03:29:49;;;;;;;22.48;11.27;;;;;;;13.64;100.00;100984.97;5072127;28;20021;-68
2021/06/30 03:32:14;;;;;;;22.58;11.43;;;;;;;13.76;100.00;100984.00;5071252;28;20453;-62
2021/06/30 03:34:39;;;;;;;22.35;10.82;;;;;;;13.81;100.00;100992.84;5072389;28;20035;-61
2021/06/30 03:37:05;;;;;;;23.17;10.75;;;;;;;13.87;100.00;100990.13;5070192;28;20048;-61
2021/06/30 03:39:31;;;;;;;22.63;10.90;;;;;;;13.87;100.00;100994.56;5071844;28;20032;-62
2021/06/30 03:41:56;;;;;;;21.63;10.45;;;;;;;13.75;100.00;100999.06;5071874;28;20085;-62
2021/06/30 03:44:22;;;;;;;21.38;9.90;;;;;;;13.60;100.00;101000.06;5071735;28;20064;-61
2021/06/30 03:46:47;;;;;;;22.55;11.15;;;;;;;13.66;100.00;100998.22;5071701;28;20060;-63
2021/06/30 03:49:12;;;;;;;21.33;9.50;;;;;;;13.58;100.00;100998.28;5071927;28;20025;-63
2021/06/30 03:51:38;;;;;;;21.92;10.30;;;;;;;13.70;100.00;101005.31;5071544;28;20033;-62
2021/06/30 03:54:05;;;;;;;22.42;10.43;;;;;;;13.77;100.00;101010.59;5071848;28;20468;-62
2021/06/30 03:56:31;;;;;;;21.73;10.40;;;;;;;13.73;100.00;101006.19;5071697;28;20079;-62
2021/06/30 03:58:58;;;;;;;22.38;10.23;;;;;;;13.71;100.00;101002.63;5072015;28;20055;-66
2021/06/30 04:01:24;;;;;;;21.60;10.27;;;;;;;13.71;100.00;101002.63;5071926;28;20036;-63
2021/06/30 04:03:53;;;;;;;21.45;9.13;;;;;;;13.84;100.00;101005.22;5074608;28;20020;-63
2021/06/30 04:06:19;;;;;;;21.10;9.48;;;;;;;13.71;100.00;101007.94;5075236;28;20032;-63
2021/06/30 04:08:44;;;;;;;21.95;9.63;;;;;;;13.82;100.00;101012.31;5075402;28;20085;-63
2021/06/30 04:11:10;;;;;;;22.27;9.90;;;;;;;13.84;100.00;101006.09;5075304;28;20360;-63
2021/06/30 04:13:35;;;;;;;21.58;9.98;;;;;;;13.72;100.00;101007.06;5075273;28;20028;-62
2021/06/30 04:16:00;;;;;;;22.63;11.23;;;;;;;13.71;100.00;101009.72;5075293;28;20016;-64
2021/06/30 04:18:26;;;;;;;22.45;10.63;;;;;;;13.72;100.00;100999.09;5075281;28;20028;-63
2021/06/30 04:20:51;;;;;;;22.40;10.90;;;;;;;13.69;100.00;101004.44;5075139;28;20127;-63
2021/06/30 04:23:16;;;;;;;23.85;11.45;;;;;;;13.59;100.00;101003.59;5075175;28;20501;-63
2021/06/30 04:25:42;;;;;;;21.92;10.30;;;;;;;13.57;100.00;101000.06;5075080;28;20538;-63
2021/06/30 04:28:07;;;;;;;22.65;10.45;;;;;;;13.44;100.00;100998.38;5075090;28;20483;-62
2021/06/30 04:30:33;;;;;;;22.67;10.65;;;;;;;13.52;100.00;101001.84;5075331;28;20375;-63
2021/06/30 04:32:58;;;;;;;24.05;10.65;;;;;;;13.46;100.00;101001.91;5074641;28;20028;-63
2021/06/30 04:35:24;;;;;;;24.48;12.07;;;;;;;13.37;100.00;101001.97;5074791;28;20031;-62
2021/06/30 04:37:49;;;;;;;25.05;12.15;;;;;;;13.25;100.00;101000.19;5074714;28;20033;-63
2021/06/30 04:40:14;;;;;;;24.63;12.30;;;;;;;13.22;100.00;101001.09;5074582;28;20021;-63
2021/06/30 04:42:40;;;;;;;23.67;11.90;;;;;;;13.31;100.00;101001.94;5074818;28;20548;-63
2021/06/30 04:45:05;;;;;;;24.02;12.30;;;;;;;13.28;100.00;101007.25;5074786;28;20099;-63
2021/06/30 04:47:31;;;;;;;23.13;11.05;;;;;;;13.37;100.00;101007.25;5074691;28;20467;-64
2021/06/30 04:49:56;;;;;;;24.33;12.30;;;;;;;13.29;100.00;101007.25;5074475;28;20059;-62
2021/06/30 04:52:21;;;;;;;24.75;11.70;;;;;;;13.28;100.00;101002.84;5074798;28;20073;-64
2021/06/30 04:54:47;;;;;;;24.70;11.60;;;;;;;13.32;100.00;101003.69;5073969;28;20048;-62
2021/06/30 04:57:12;;;;;;;24.42;10.63;;;;;;;13.40;100.00;100996.63;5074496;28;20077;-62
2021/06/30 04:59:37;;;;;;;23.27;11.00;;;;;;;13.33;100.00;101006.34;5074671;28;20108;-62
2021/06/30 05:02:03;;;;;;;23.05;10.80;;;;;;;13.23;100.00;101010.81;5074385;28;20488;-63
2021/06/30 05:04:28;;;;;;;22.77;10.73;;;;;;;13.21;100.00;101011.72;5074265;28;20108;-62
2021/06/30 05:06:54;;;;;;;22.58;10.73;;;;;;;13.31;100.00;101015.19;5074369;28;20020;-63
2021/06/30 05:09:19;;;;;;;22.73;10.48;;;;;;;13.39;100.00;101016.09;5071663;28;20383;-63
2021/06/30 05:11:44;;;;;;;22.58;10.68;;;;;;;13.38;100.00;101027.59;5074083;28;20460;-62
2021/06/30 05:14:10;;;;;;;22.98;10.73;;;;;;;13.48;100.00;101018.69;5073677;28;20371;-62
2021/06/30 05:16:35;;;;;;;22.73;10.68;;;;;;;13.58;100.00;101017.75;5074051;28;20315;-62
2021/06/30 05:19:00;;;;;;;22.58;10.40;;;;;;;13.66;100.00;101027.47;5074299;28;20017;-62
2021/06/30 05:21:26;;;;;;;22.80;11.00;;;;;;;13.73;100.00;101018.56;5073817;28;20464;-63
2021/06/30 05:23:51;;;;;;;21.95;10.23;;;;;;;13.64;100.00;101018.63;5073692;28;20035;-63
2021/06/30 05:26:17;;;;;;;22.48;10.80;;;;;;;13.70;100.00;101018.59;5073829;28;20066;-64
2021/06/30 05:28:43;;;;;;;22.55;10.32;;;;;;;13.66;100.00;101011.50;5073660;28;20020;-63
2021/06/30 05:31:08;;;;;;;21.67;10.05;;;;;;;13.74;100.00;101009.72;5072431;28;20035;-62
2021/06/30 05:33:33;;;;;;;22.33;10.40;;;;;;;13.77;100.00;101012.34;5073035;28;20459;-60
2021/06/30 05:35:59;;;;;;;22.10;10.20;;;;;;;13.73;100.00;101014.16;5072798;28;20038;-60
2021/06/30 05:38:24;;;;;;;22.20;10.07;;;;;;;13.68;100.00;101018.59;5072925;28;20127;-60
2021/06/30 05:40:50;;;;;;;21.80;10.18;;;;;;;13.65;100.00;101015.09;5072703;28;20024;-61
2021/06/30 05:43:16;;;;;;;22.05;10.38;;;;;;;13.72;100.00;101014.16;5072828;28;20544;-60
2021/06/30 05:45:42;;;;;;;21.90;10.07;;;;;;;13.67;100.00;101018.59;5072812;28;20101;-60
2021/06/30 05:48:07;;;;;;;21.77;10.00;;;;;;;13.64;100.00;101008.88;5072054;28;20044;-60
2021/06/30 05:50:33;;;;;;;21.17;9.65;;;;;;;13.69;100.00;101024.78;5072544;28;20036;-61
2021/06/30 05:52:59;;;;;;;21.45;9.70;;;;;;;13.68;100.00;101023.03;5072430;28;20021;-61
2021/06/30 05:55:24;;;;;;;21.50;9.85;;;;;;;13.73;100.00;101018.56;5071969;28;20052;-61
2021/06/30 05:57:50;;;;;;;21.50;10.00;;;;;;;13.62;100.00;101021.28;5072178;28;20491;-60
2021/06/30 06:00:19;;;;;;;22.50;9.60;;;;;;;13.68;100.00;101020.38;5072718;28;20108;-60
2021/06/30 06:02:46;;;;;;;21.17;9.50;;;;;;;13.70;100.00;101023.91;5072300;28;20028;-60
2021/06/30 06:05:11;;;;;;;22.70;10.68;;;;;;;13.67;100.00;101010.63;5072218;28;20066;-60
2021/06/30 06:07:37;;;;;;;23.17;10.10;;;;;;;13.72;100.00;101028.31;5072190;28;20028;-61
2021/06/30 06:10:05;;;;;;;22.38;10.18;;;;;;;13.83;100.00;101022.94;5072157;28;20021;-60
2021/06/30 06:12:30;;;;;;;22.30;10.55;;;;;;;13.83;100.00;101024.72;5069616;28;20033;-60
2021/06/30 06:14:56;;;;;;;22.40;10.38;;;;;;;13.98;100.00;101026.38;5070826;28;20161;-60
2021/06/30 06:17:21;;;;;;;22.73;10.82;;;;;;;13.66;100.00;101024.81;5071661;28;20024;-59
2021/06/30 06:19:47;;;;;;;22.48;9.90;;;;;;;13.76;100.00;101031.81;5072185;28;20024;-60
2021/06/30 06:22:12;;;;;;;22.38;10.02;;;;;;;13.81;100.00;101027.38;5072160;28;20024;-61
2021/06/30 06:24:38;;;;;;;22.67;10.73;;;;;;;13.82;100.00;101023.84;5070819;28;20040;-59
2021/06/30 06:27:06;;;;;;;22.73;10.45;;;;;;;13.85;100.00;101021.16;5071029;28;20553;-60
2021/06/30 06:29:32;;;;;;;22.40;11.02;;;;;;;13.85;100.00;101031.78;5071427;28;21478;-60
2021/06/30 06:31:57;;;;;;;22.55;10.75;;;;;;;13.84;100.00;101032.66;5070455;28;20024;-61
2021/06/30 06:34:23;;;;;;;22.48;10.43;;;;;;;13.91;100.00;101033.53;5071787;28;20033;-60
2021/06/30 06:36:50;;;;;;;23.27;11.27;;;;;;;13.86;100.00;101035.31;5071678;28;20043;-60
2021/06/30 06:39:17;;;;;;;21.60;10.70;;;;;;;13.81;100.00;101040.66;5071812;28;20499;-60
2021/06/30 06:41:43;;;;;;;22.35;10.80;;;;;;;13.90;100.00;101035.28;5071394;28;20497;-61
2021/06/30 06:44:09;;;;;;;23.05;10.63;;;;;;;13.97;100.00;101029.94;5071795;28;20021;-60
2021/06/30 06:46:37;;;;;;;22.25;10.68;;;;;;;14.04;100.00;101037.00;5071890;28;20100;-60
2021/06/30 06:49:03;;;;;;;22.63;10.35;;;;;;;14.17;100.00;101021.81;5071346;28;20363;-61
2021/06/30 06:51:29;;;;;;;21.83;9.95;;;;;;;14.21;100.00;101027.13;5068819;28;20025;-61
2021/06/30 06:53:54;;;;;;;22.10;10.00;;;;;;;14.22;100.00;101028.84;5071758;28;20029;-59
2021/06/30 06:56:24;;;;;;;21.77;9.88;;;;;;;14.27;100.00;101024.41;5070079;28;20510;-60
2021/06/30 06:58:50;;;;;;;22.10;9.40;;;;;;;14.34;100.00;101033.19;5071616;28;20123;-61
2021/06/30 07:01:15;;;;;;;20.60;8.93;;;;;;;14.42;98.78;101027.84;5071264;28;20036;-60
2021/06/30 07:03:40;;;;;;;20.50;8.70;;;;;;;14.44;98.20;101026.03;5071272;28;20026;-60
2021/06/30 07:06:06;;;;;;;20.10;7.75;;;;;;;14.43;94.43;101030.47;5071690;28;20025;-61
2021/06/30 07:08:31;;;;;;;19.42;7.63;;;;;;;14.29;98.03;101033.22;5067215;28;20028;-60
2021/06/30 07:10:57;;;;;;;19.70;7.78;;;;;;;14.27;96.65;101031.47;5071927;28;20032;-60
2021/06/30 07:13:22;;;;;;;20.20;8.25;;;;;;;14.34;98.31;101034.97;5071194;28;20103;-61
2021/06/30 07:15:48;;;;;;;20.25;8.23;;;;;;;14.43;100.00;101042.88;5071526;28;20021;-60
2021/06/30 07:18:17;;;;;;;19.92;8.23;;;;;;;14.49;99.83;101037.53;5071384;28;20033;-61
2021/06/30 07:20:44;;;;;;;20.63;8.68;;;;;;;14.63;100.00;101040.06;5071172;28;20056;-61
2021/06/30 07:23:13;;;;;;;19.60;7.70;;;;;;;14.71;96.21;101042.66;5071386;28;20070;-61
2021/06/30 07:25:39;;;;;;;21.50;7.70;;;;;;;14.59;97.18;101046.28;5071414;28;20082;-61
2021/06/30 07:28:05;;;;;;;18.73;7.40;;;;;;;14.54;98.30;101048.13;5070418;28;20025;-60
2021/06/30 07:30:31;;;;;;;19.13;7.22;;;;;;;14.33;97.54;101046.50;5070997;28;20060;-60
2021/06/30 07:32:57;;;;;;;20.55;8.20;;;;;;;14.29;100.00;101053.63;5071098;28;20113;-60
2021/06/30 07:35:23;;;;;;;19.65;7.82;;;;;;;14.37;100.00;101053.56;5071409;28;20040;-61
2021/06/30 07:37:48;;;;;;;19.52;7.20;;;;;;;14.27;99.32;101052.75;5072876;28;20036;-62
2021/06/30 07:40:14;;;;;;;19.02;7.20;;;;;;;14.17;100.00;101054.63;5073602;28;20368;-61
2021/06/30 07:42:40;;;;;;;18.80;7.13;;;;;;;14.13;98.37;101061.72;5073367;28;20028;-62
2021/06/30 07:45:06;;;;;;;18.58;7.20;;;;;;;14.18;99.55;101056.34;5072359;28;20533;-61
2021/06/30 07:47:31;;;;;;;18.90;7.35;;;;;;;14.22;100.00;101057.22;5074371;28;20060;-62
2021/06/30 07:49:57;;;;;;;19.92;7.63;;;;;;;14.27;100.00;101053.66;5074651;28;20495;-62
2021/06/30 07:52:22;;;;;;;19.08;7.55;;;;;;;14.27;98.35;101066.03;5074696;28;20021;-62
2021/06/30 07:54:48;;;;;;;18.42;6.93;;;;;;;14.26;99.17;101057.19;5073447;28;20387;-62
2021/06/30 07:57:13;;;;;;;18.15;6.90;;;;;;;14.18;98.01;101067.00;5074196;28;20024;-61
2021/06/30 07:59:38;;;;;;;19.30;7.05;;;;;;;14.27;100.00;101074.91;5074644;28;20463;-62
2021/06/30 08:02:04;;;;;;;19.30;7.35;;;;;;;14.32;100.00;101077.53;5074586;28;20520;-62
2021/06/30 08:04:29;;;;;;;19.05;7.20;;;;;;;14.35;98.20;101066.00;5074390;28;20489;-62
2021/06/30 08:06:54;;;;;;;20.23;7.40;;;;;;;14.36;98.61;101078.38;5074417;28;20036;-64
2021/06/30 08:09:20;;;;;;;19.90;7.47;;;;;;;14.34;97.60;101074.88;5072948;28;20027;-64
2021/06/30 08:11:45;;;;;;;20.00;7.90;;;;;;;14.29;99.90;101073.13;5074593;28;20036;-64
2021/06/30 08:14:11;;;;;;;19.60;7.93;;;;;;;14.36;100.00;101084.59;5074082;28;20027;-62
2021/06/30 08:16:37;;;;;;;19.67;8.48;;;;;;;14.30;98.64;101077.56;5074829;28;20112;-62
2021/06/30 08:19:03;;;;;;;19.65;8.52;;;;;;;14.20;100.00;101081.16;5074516;28;20539;-62
2021/06/30 08:21:28;;;;;;;19.85;8.70;;;;;;;14.13;100.00;101082.09;5074825;28;20031;-62
2021/06/30 08:23:53;;;;;;;21.67;9.00;;;;;;;14.11;100.00;101078.56;5074792;28;20025;-65
2021/06/30 08:26:19;;;;;;;21.38;9.18;;;;;;;14.26;98.17;101075.81;5071978;28;20052;-65
2021/06/30 08:28:46;;;;;;;20.27;8.63;;;;;;;14.30;98.28;101074.91;5074302;28;20052;-63
2021/06/30 08:31:11;;;;;;;20.48;8.95;;;;;;;14.36;99.85;101081.03;5073646;28;20021;-65
2021/06/30 08:33:36;;;;;;;20.80;9.35;;;;;;;14.37;100.00;101072.19;5074102;28;20021;-65
2021/06/30 08:36:04;;;;;;;20.83;9.27;;;;;;;14.44;100.00;101076.56;5073961;28;20373;-64
2021/06/30 08:38:29;;;;;;;20.95;9.05;;;;;;;14.56;98.90;101075.56;5073327;28;20049;-65
2021/06/30 08:40:56;;;;;;;20.88;9.30;;;;;;;14.56;98.96;101076.47;5073661;28;20379;-64
2021/06/30 08:43:22;;;;;;;21.00;9.27;;;;;;;14.46;96.92;101073.00;5074065;28;20434;-64
2021/06/30 08:45:48;;;;;;;21.80;9.50;;;;;;;14.44;99.55;101074.78;5073674;28;20016;-65
2021/06/30 08:48:15;;;;;;;21.17;10.13;;;;;;;14.36;98.67;101078.38;5072727;28;20090;-64
2021/06/30 08:50:42;;;;;;;20.90;9.50;;;;;;;14.40;97.56;101082.78;5073939;28;20421;-65
2021/06/30 08:53:09;;;;;;;22.42;10.50;;;;;;;14.61;98.65;101077.34;5064704;28;20055;-65
2021/06/30 08:55:41;;;;;;;20.55;9.60;;;;;;;14.60;97.45;101086.16;5066856;28;20427;-66
2021/06/30 08:58:06;;;;;;;21.30;9.93;;;;;;;14.73;99.17;101080.78;5070706;28;20467;-66
2021/06/30 09:00:32;;;;;;;20.52;8.93;;;;;;;14.75;95.87;101084.31;5070887;28;20063;-66
2021/06/30 09:02:58;;;;;;;21.25;9.43;;;;;;;14.70;97.00;101086.16;5070551;28;20021;-66
2021/06/30 09:07:51;;;;;;;21.40;9.15;;;;;;;14.87;98.10;101088.63;5071052;28;20119;-65
2021/06/30 09:10:36;;;;;;;20.10;8.73;;;;;;;14.88;96.37;101093.97;5070648;28;20051;-62
2021/06/30 09:13:17;;;;;;;20.67;8.93;;;;;;;14.90;97.46;101086.84;5070458;28;20727;-62
2021/06/30 09:15:43;;;;;;;21.48;9.23;;;;;;;14.72;97.98;101089.66;5065769;28;20091;-62
2021/06/30 09:18:29;;;;;;;20.65;8.32;;;;;;;14.72;95.93;101095.88;5068971;28;20111;-61
2021/06/30 09:21:14;;;;;;;20.88;8.70;;;;;;;14.79;97.35;101102.91;5070682;28;20678;-62
2021/06/30 09:24:00;;;;;;;20.35;8.40;;;;;;;14.92;95.39;101098.34;5028032;28;20036;-62
2021/06/30 09:26:28;;;;;;;20.58;8.00;;;;;;;14.85;95.33;101109.06;5028883;28;20042;-62
2021/06/30 09:29:12;;;;;;;20.60;8.45;;;;;;;14.92;97.96;101102.78;5027503;28;20040;-62
2021/06/30 09:31:41;;;;;;;19.75;8.00;;;;;;;14.92;96.36;101101.00;5028640;28;20481;-62
2021/06/30 09:34:07;;;;;;;19.77;7.50;;;;;;;15.07;95.16;101101.75;5027671;28;20044;-63
2021/06/30 09:37:01;;;;;;;22.52;7.95;;;;;;;15.01;94.97;101104.47;5029356;28;20022;-62
2021/06/30 09:39:28;;;;;;;19.02;7.43;;;;;;;14.77;92.27;101109.16;5028357;28;20037;-62
2021/06/30 09:42:04;;;;;;;20.95;8.00;;;;;;;14.67;96.98;101113.66;5025490;28;20034;-62
2021/06/30 09:44:31;;;;;;;19.30;7.78;;;;;;;14.74;96.47;101109.16;5023514;28;20046;-62
2021/06/30 09:46:56;;;;;;;20.15;8.20;;;;;;;14.60;97.20;101102.13;5010330;28;20041;-63
2021/06/30 09:49:23;;;;;;;21.10;8.38;;;;;;;14.54;97.70;101107.50;5026953;28;20384;-63
2021/06/30 09:52:12;;;;;;;19.90;7.95;;;;;;;14.77;97.40;101112.69;5027043;28;20021;-62
2021/06/30 09:54:41;;;;;;;19.92;8.43;;;;;;;14.57;98.72;101117.25;5026283;28;20531;-66
2021/06/30 09:57:10;;;;;;;20.88;8.60;;;;;;;14.64;100.00;101106.56;5025480;28;20052;-66
2021/06/30 09:59:37;;;;;;;20.42;8.20;;;;;;;14.95;98.84;101114.28;5027162;28;20044;-62
2021/06/30 10:02:17;;;;;;;19.88;7.90;;;;;;;15.13;97.15;101120.31;5070629;28;20032;-62
2021/06/30 10:04:58;;;;;;;18.83;7.13;;;;;;;15.34;95.47;101121.88;5071582;28;20089;-62
2021/06/30 10:07:28;;;;;;;19.70;7.82;;;;;;;15.14;98.48;101120.31;5072600;28;20399;-62
2021/06/30 10:09:56;;;;;;;19.60;7.70;;;;;;;15.20;100.00;101124.69;5072902;28;20020;-62
2021/06/30 10:12:26;;;;;;;19.65;7.60;;;;;;;15.14;100.00;101120.31;5073168;28;20371;-62
2021/06/30 10:14:53;;;;;;;19.65;7.60;;;;;;;15.14;99.05;101125.66;5072643;28;20032;-62
2021/06/30 10:17:20;;;;;;;20.38;8.55;;;;;;;15.15;99.30;101127.41;5072457;28;20528;-64
2021/06/30 10:19:47;;;;;;;20.85;7.88;;;;;;;15.25;100.00;101127.31;5072826;28;20024;-64
2021/06/30 10:22:14;;;;;;;20.85;7.90;;;;;;;15.19;99.61;101119.38;5072770;28;20028;-63
2021/06/30 10:24:40;;;;;;;20.63;8.15;;;;;;;15.18;97.59;101117.63;5072817;28;20024;-63
2021/06/30 10:27:07;;;;;;;19.92;7.82;;;;;;;15.36;96.80;101125.41;5072669;28;20036;-63
2021/06/30 10:29:38;;;;;;;20.50;8.00;;;;;;;15.42;99.03;101124.44;5072725;28;20115;-63
2021/06/30 10:32:05;;;;;;;20.65;8.35;;;;;;;15.67;99.67;101117.94;5072649;28;20025;-63
2021/06/30 10:34:54;;;;;;;19.65;7.32;;;;;;;15.96;95.66;101121.16;5072418;28;20072;-63
2021/06/30 10:37:25;;;;;;;19.27;6.93;;;;;;;16.04;92.65;101120.13;5072435;28;20143;-63
2021/06/30 10:40:00;;;;;;;19.95;7.18;;;;;;;16.24;91.51;101120.75;5072546;28;20021;-63
2021/06/30 10:42:37;;;;;;;18.92;6.50;;;;;;;16.57;88.98;101116.69;5072835;28;20032;-64
2021/06/30 10:45:14;;;;;;;18.92;6.78;;;;;;;16.80;86.09;101118.97;5072375;28;20186;-63
2021/06/30 10:48:12;;;;;;;19.67;6.70;;;;;;;16.81;85.97;101114.53;5068259;28;20037;-63
2021/06/30 10:50:43;;;;;;;18.88;6.60;;;;;;;16.84;86.93;101109.16;5018473;28;20426;-63
2021/06/30 10:53:11;;;;;;;18.38;6.40;;;;;;;16.87;85.61;101111.75;5024497;28;20021;-61
2021/06/30 10:55:36;;;;;;;18.50;6.40;;;;;;;16.64;85.94;101113.00;5029025;28;20386;-61
2021/06/30 10:58:11;;;;;;;18.50;6.55;;;;;;;16.33;86.95;101105.50;5029246;28;20167;-61
2021/06/30 11:00:48;;;;;;;18.60;6.70;;;;;;;16.71;88.37;101111.13;5029486;28;20033;-62
2021/06/30 11:03:27;;;;;;;18.88;6.85;;;;;;;17.23;88.57;101101.34;5028423;28;20075;-62
2021/06/30 11:06:17;;;;;;;17.85;5.95;;;;;;;17.58;80.55;101105.97;5029336;28;20045;-61
2021/06/30 11:08:49;;;;;;;18.55;6.40;;;;;;;18.42;78.79;101105.03;4970334;28;20035;-62
2021/06/30 11:11:18;;;;;;;19.63;6.40;;;;;;;18.67;75.10;101109.78;4970874;28;20035;-62